sensor_id;sensor_type;location;lat;lon;timestamp;P1;durP1;ratioP1;P2;durP2;ratioP2
5349;SDS011;2697;42.144;24.794;2024-03-23T00:55:33;15.13;;;7.80;;
5349;SDS011;2697;42.144;24.794;2024-03-23T00:57:59;11.97;;;7.50;;
5349;SDS011;2697;42.144;24.794;2024-03-23T01:00:24;19.03;;;7.80;;
5349;SDS011;2697;42.144;24.794;2024-03-23T01:02:50;16.60;;;8.27;;
5349;SDS011;2697;42.144;24.794;2024-03-23T01:05:15;16.90;;;8.13;;
5349;SDS011;2697;42.144;24.794;2024-03-23T01:07:41;30.63;;;8.80;;
5349;SDS011;2697;42.144;24.794;2024-03-23T01:10:06;12.50;;;7.77;;
5349;SDS011;2697;42.144;24.794;2024-03-23T01:12:32;16.60;;;8.43;;
5349;SDS011;2697;42.144;24.794;2024-03-23T01:14:57;26.07;;;7.13;;
5349;SDS011;2697;42.144;24.794;2024-03-23T01:17:22;22.03;;;8.73;;
5349;SDS011;2697;42.144;24.794;2024-03-23T01:19:48;20.93;;;8.80;;
5349;SDS011;2697;42.144;24.794;2024-03-23T01:22:13;17.07;;;8.50;;
5349;SDS011;2697;42.144;24.794;2024-03-23T01:24:38;16.97;;;7.73;;
5349;SDS011;2697;42.144;24.794;2024-03-23T01:27:04;20.53;;;8.90;;
5349;SDS011;2697;42.144;24.794;2024-03-23T01:29:29;26.53;;;9.13;;
5349;SDS011;2697;42.144;24.794;2024-03-23T01:31:55;22.33;;;8.47;;
5349;SDS011;2697;42.144;24.794;2024-03-23T01:34:20;25.80;;;9.20;;
5349;SDS011;2697;42.144;24.794;2024-03-23T01:36:46;25.40;;;8.77;;
5349;SDS011;2697;42.144;24.794;2024-03-23T01:39:12;20.97;;;9.10;;
5349;SDS011;2697;42.144;24.794;2024-03-23T01:41:39;15.50;;;9.00;;
5349;SDS011;2697;42.144;24.794;2024-03-23T01:44:07;18.90;;;8.30;;
5349;SDS011;2697;42.144;24.794;2024-03-23T01:46:33;24.83;;;8.93;;
5349;SDS011;2697;42.144;24.794;2024-03-23T01:49:07;25.57;;;8.07;;
5349;SDS011;2697;42.144;24.794;2024-03-23T01:51:36;22.37;;;9.60;;
5349;SDS011;2697;42.144;24.794;2024-03-23T01:54:02;26.13;;;10.40;;
5349;SDS011;2697;42.144;24.794;2024-03-23T01:56:31;13.07;;;7.57;;
5349;SDS011;2697;42.144;24.794;2024-03-23T01:58:58;29.70;;;8.83;;
5349;SDS011;2697;42.144;24.794;2024-03-23T02:01:24;19.43;;;8.53;;
5349;SDS011;2697;42.144;24.794;2024-03-23T02:03:50;16.83;;;8.23;;
5349;SDS011;2697;42.144;24.794;2024-03-23T02:06:15;18.00;;;8.73;;
5349;SDS011;2697;42.144;24.794;2024-03-23T02:08:41;17.07;;;8.83;;
5349;SDS011;2697;42.144;24.794;2024-03-23T02:11:06;17.73;;;8.17;;
5349;SDS011;2697;42.144;24.794;2024-03-23T02:13:32;23.17;;;10.90;;
5349;SDS011;2697;42.144;24.794;2024-03-23T02:15:57;19.77;;;7.87;;
5349;SDS011;2697;42.144;24.794;2024-03-23T02:18:23;22.33;;;9.20;;
5349;SDS011;2697;42.144;24.794;2024-03-23T02:20:48;24.20;;;9.07;;
5349;SDS011;2697;42.144;24.794;2024-03-23T02:23:14;22.60;;;9.30;;
5349;SDS011;2697;42.144;24.794;2024-03-23T02:25:40;25.83;;;9.97;;
5349;SDS011;2697;42.144;24.794;2024-03-23T02:28:05;35.23;;;9.97;;
5349;SDS011;2697;42.144;24.794;2024-03-23T02:30:31;21.93;;;9.47;;
5349;SDS011;2697;42.144;24.794;2024-03-23T02:32:56;26.00;;;9.77;;
5349;SDS011;2697;42.144;24.794;2024-03-23T02:35:22;18.60;;;9.40;;
5349;SDS011;2697;42.144;24.794;2024-03-23T02:37:47;22.33;;;8.40;;
5349;SDS011;2697;42.144;24.794;2024-03-23T02:40:16;20.67;;;8.30;;
5349;SDS011;2697;42.144;24.794;2024-03-23T02:42:42;30.93;;;9.20;;
5349;SDS011;2697;42.144;24.794;2024-03-23T02:45:07;20.67;;;7.40;;
5349;SDS011;2697;42.144;24.794;2024-03-23T02:47:33;20.73;;;8.43;;
5349;SDS011;2697;42.144;24.794;2024-03-23T02:49:58;15.60;;;6.87;;
5349;SDS011;2697;42.144;24.794;2024-03-23T02:52:24;11.73;;;6.37;;
5349;SDS011;2697;42.144;24.794;2024-03-23T02:54:49;16.83;;;7.27;;
5349;SDS011;2697;42.144;24.794;2024-03-23T02:57:14;16.53;;;6.63;;
5349;SDS011;2697;42.144;24.794;2024-03-23T02:59:40;13.63;;;6.17;;
5349;SDS011;2697;42.144;24.794;2024-03-23T03:02:06;20.27;;;7.50;;
5349;SDS011;2697;42.144;24.794;2024-03-23T03:04:31;17.43;;;7.43;;
5349;SDS011;2697;42.144;24.794;2024-03-23T03:07:00;16.00;;;7.70;;
5349;SDS011;2697;42.144;24.794;2024-03-23T03:09:25;16.53;;;6.80;;
5349;SDS011;2697;42.144;24.794;2024-03-23T03:11:51;20.80;;;8.00;;
5349;SDS011;2697;42.144;24.794;2024-03-23T03:14:16;11.50;;;6.27;;
5349;SDS011;2697;42.144;24.794;2024-03-23T03:16:42;9.93;;;5.90;;
5349;SDS011;2697;42.144;24.794;2024-03-23T03:19:07;16.33;;;6.67;;
5349;SDS011;2697;42.144;24.794;2024-03-23T03:21:33;19.70;;;7.47;;
5349;SDS011;2697;42.144;24.794;2024-03-23T03:23:58;13.47;;;7.43;;
5349;SDS011;2697;42.144;24.794;2024-03-23T03:26:23;18.33;;;8.20;;
5349;SDS011;2697;42.144;24.794;2024-03-23T03:28:50;16.80;;;7.33;;
5349;SDS011;2697;42.144;24.794;2024-03-23T03:31:15;22.30;;;8.20;;
5349;SDS011;2697;42.144;24.794;2024-03-23T03:33:41;15.63;;;7.50;;
5349;SDS011;2697;42.144;24.794;2024-03-23T03:36:07;18.30;;;8.80;;
5349;SDS011;2697;42.144;24.794;2024-03-23T03:38:32;24.90;;;8.93;;
5349;SDS011;2697;42.144;24.794;2024-03-23T03:41:00;25.07;;;9.90;;
5349;SDS011;2697;42.144;24.794;2024-03-23T03:43:26;22.90;;;10.33;;
5349;SDS011;2697;42.144;24.794;2024-03-23T03:45:54;19.73;;;9.57;;
5349;SDS011;2697;42.144;24.794;2024-03-23T03:48:21;30.40;;;10.53;;
5349;SDS011;2697;42.144;24.794;2024-03-23T03:50:46;24.73;;;9.60;;
5349;SDS011;2697;42.144;24.794;2024-03-23T03:53:11;25.07;;;11.27;;
5349;SDS011;2697;42.144;24.794;2024-03-23T03:55:37;24.70;;;10.80;;
5349;SDS011;2697;42.144;24.794;2024-03-23T03:58:02;49.07;;;10.67;;
5349;SDS011;2697;42.144;24.794;2024-03-23T04:00:28;37.07;;;10.27;;
5349;SDS011;2697;42.144;24.794;2024-03-23T04:02:53;12.70;;;7.80;;
5349;SDS011;2697;42.144;24.794;2024-03-23T04:05:18;20.27;;;8.97;;
5349;SDS011;2697;42.144;24.794;2024-03-23T04:07:45;27.53;;;8.77;;
5349;SDS011;2697;42.144;24.794;2024-03-23T04:10:10;35.27;;;9.27;;
5349;SDS011;2697;42.144;24.794;2024-03-23T04:12:36;20.23;;;8.13;;
5349;SDS011;2697;42.144;24.794;2024-03-23T04:15:02;23.07;;;8.80;;
5349;SDS011;2697;42.144;24.794;2024-03-23T04:17:29;27.57;;;8.23;;
5349;SDS011;2697;42.144;24.794;2024-03-23T04:19:59;20.27;;;10.07;;
5349;SDS011;2697;42.144;24.794;2024-03-23T04:22:25;19.00;;;9.60;;
5349;SDS011;2697;42.144;24.794;2024-03-23T04:24:57;23.93;;;9.00;;
5349;SDS011;2697;42.144;24.794;2024-03-23T04:27:23;29.50;;;10.47;;
5349;SDS011;2697;42.144;24.794;2024-03-23T04:29:49;19.87;;;7.97;;
5349;SDS011;2697;42.144;24.794;2024-03-23T04:32:14;42.33;;;9.40;;
5349;SDS011;2697;42.144;24.794;2024-03-23T04:34:40;43.60;;;9.93;;
5349;SDS011;2697;42.144;24.794;2024-03-23T04:37:05;31.83;;;10.60;;
5349;SDS011;2697;42.144;24.794;2024-03-23T04:39:31;24.30;;;10.53;;
5349;SDS011;2697;42.144;24.794;2024-03-23T04:41:56;38.13;;;10.23;;
5349;SDS011;2697;42.144;24.794;2024-03-23T04:44:21;23.60;;;11.47;;
5349;SDS011;2697;42.144;24.794;2024-03-23T04:46:47;32.47;;;11.20;;
5349;SDS011;2697;42.144;24.794;2024-03-23T04:49:12;32.30;;;9.60;;
5349;SDS011;2697;42.144;24.794;2024-03-23T04:51:38;33.77;;;10.27;;
5349;SDS011;2697;42.144;24.794;2024-03-23T04:54:03;22.10;;;9.53;;
5349;SDS011;2697;42.144;24.794;2024-03-23T04:56:29;28.23;;;9.60;;
5349;SDS011;2697;42.144;24.794;2024-03-23T04:58:56;32.33;;;10.07;;
5349;SDS011;2697;42.144;24.794;2024-03-23T05:01:26;28.87;;;9.97;;
5349;SDS011;2697;42.144;24.794;2024-03-23T05:03:51;44.90;;;10.50;;
5349;SDS011;2697;42.144;24.794;2024-03-23T05:06:18;34.03;;;8.80;;
5349;SDS011;2697;42.144;24.794;2024-03-23T05:08:43;30.20;;;11.73;;
5349;SDS011;2697;42.144;24.794;2024-03-23T05:11:09;38.43;;;12.03;;
5349;SDS011;2697;42.144;24.794;2024-03-23T05:13:35;26.00;;;8.30;;
5349;SDS011;2697;42.144;24.794;2024-03-23T05:16:01;22.90;;;9.90;;
5349;SDS011;2697;42.144;24.794;2024-03-23T05:18:27;25.00;;;9.70;;
5349;SDS011;2697;42.144;24.794;2024-03-23T05:20:57;37.00;;;10.67;;
5349;SDS011;2697;42.144;24.794;2024-03-23T05:23:23;23.57;;;9.63;;
5349;SDS011;2697;42.144;24.794;2024-03-23T05:25:49;27.63;;;10.17;;
5349;SDS011;2697;42.144;24.794;2024-03-23T05:28:15;47.87;;;11.10;;
5349;SDS011;2697;42.144;24.794;2024-03-23T05:30:40;22.37;;;9.30;;
5349;SDS011;2697;42.144;24.794;2024-03-23T05:33:06;30.13;;;10.17;;
5349;SDS011;2697;42.144;24.794;2024-03-23T05:35:32;28.73;;;12.53;;
5349;SDS011;2697;42.144;24.794;2024-03-23T05:37:57;26.43;;;10.93;;
5349;SDS011;2697;42.144;24.794;2024-03-23T05:40:26;23.20;;;9.53;;
5349;SDS011;2697;42.144;24.794;2024-03-23T05:42:52;20.10;;;9.40;;
5349;SDS011;2697;42.144;24.794;2024-03-23T05:45:18;45.30;;;11.57;;
5349;SDS011;2697;42.144;24.794;2024-03-23T05:47:44;27.43;;;9.70;;
5349;SDS011;2697;42.144;24.794;2024-03-23T05:50:10;37.30;;;10.20;;
5349;SDS011;2697;42.144;24.794;2024-03-23T05:52:37;32.70;;;9.00;;
5349;SDS011;2697;42.144;24.794;2024-03-23T05:55:04;28.67;;;9.83;;
5349;SDS011;2697;42.144;24.794;2024-03-23T05:57:29;20.57;;;10.23;;
5349;SDS011;2697;42.144;24.794;2024-03-23T05:59:55;19.17;;;10.50;;
5349;SDS011;2697;42.144;24.794;2024-03-23T06:02:20;30.07;;;11.00;;
5349;SDS011;2697;42.144;24.794;2024-03-23T06:04:46;22.23;;;11.03;;
5349;SDS011;2697;42.144;24.794;2024-03-23T06:07:11;54.77;;;11.40;;
5349;SDS011;2697;42.144;24.794;2024-03-23T06:09:39;27.47;;;11.53;;
5349;SDS011;2697;42.144;24.794;2024-03-23T06:12:05;27.77;;;10.83;;
5349;SDS011;2697;42.144;24.794;2024-03-23T06:14:30;42.83;;;10.50;;
5349;SDS011;2697;42.144;24.794;2024-03-23T06:16:58;39.23;;;11.67;;
5349;SDS011;2697;42.144;24.794;2024-03-23T06:19:24;38.93;;;10.20;;
5349;SDS011;2697;42.144;24.794;2024-03-23T06:21:52;21.13;;;9.60;;
5349;SDS011;2697;42.144;24.794;2024-03-23T06:24:17;41.00;;;10.63;;
5349;SDS011;2697;42.144;24.794;2024-03-23T06:26:42;31.07;;;11.90;;
5349;SDS011;2697;42.144;24.794;2024-03-23T06:29:08;32.50;;;11.73;;
5349;SDS011;2697;42.144;24.794;2024-03-23T06:31:34;46.77;;;10.57;;
5349;SDS011;2697;42.144;24.794;2024-03-23T06:33:59;52.80;;;16.17;;
5349;SDS011;2697;42.144;24.794;2024-03-23T06:36:24;33.63;;;12.80;;
5349;SDS011;2697;42.144;24.794;2024-03-23T06:38:50;24.23;;;11.27;;
5349;SDS011;2697;42.144;24.794;2024-03-23T06:41:15;31.90;;;12.20;;
5349;SDS011;2697;42.144;24.794;2024-03-23T06:43:41;33.33;;;13.60;;
5349;SDS011;2697;42.144;24.794;2024-03-23T06:46:06;25.57;;;12.03;;
5349;SDS011;2697;42.144;24.794;2024-03-23T06:48:32;35.10;;;11.37;;
5349;SDS011;2697;42.144;24.794;2024-03-23T06:50:57;27.40;;;11.30;;
5349;SDS011;2697;42.144;24.794;2024-03-23T06:53:23;33.70;;;11.30;;
5349;SDS011;2697;42.144;24.794;2024-03-23T06:55:52;33.60;;;11.50;;
5349;SDS011;2697;42.144;24.794;2024-03-23T06:58:22;32.57;;;11.80;;
5349;SDS011;2697;42.144;24.794;2024-03-23T07:00:48;24.33;;;12.00;;
5349;SDS011;2697;42.144;24.794;2024-03-23T07:03:14;32.30;;;11.93;;
5349;SDS011;2697;42.144;24.794;2024-03-23T07:05:40;21.53;;;11.07;;
5349;SDS011;2697;42.144;24.794;2024-03-23T07:08:06;45.97;;;12.33;;
5349;SDS011;2697;42.144;24.794;2024-03-23T07:10:32;28.80;;;11.43;;
5349;SDS011;2697;42.144;24.794;2024-03-23T07:12:57;34.23;;;11.13;;
5349;SDS011;2697;42.144;24.794;2024-03-23T07:15:23;58.30;;;12.30;;
5349;SDS011;2697;42.144;24.794;2024-03-23T07:17:48;23.90;;;11.10;;
5349;SDS011;2697;42.144;24.794;2024-03-23T07:20:13;29.23;;;11.60;;
5349;SDS011;2697;42.144;24.794;2024-03-23T07:22:39;34.87;;;12.63;;
5349;SDS011;2697;42.144;24.794;2024-03-23T07:25:05;23.17;;;12.20;;
5349;SDS011;2697;42.144;24.794;2024-03-23T07:27:31;23.63;;;11.67;;
5349;SDS011;2697;42.144;24.794;2024-03-23T07:29:57;36.20;;;13.13;;
5349;SDS011;2697;42.144;24.794;2024-03-23T07:32:22;30.37;;;12.77;;
5349;SDS011;2697;42.144;24.794;2024-03-23T07:34:48;22.23;;;13.90;;
5349;SDS011;2697;42.144;24.794;2024-03-23T07:37:13;27.97;;;10.80;;
5349;SDS011;2697;42.144;24.794;2024-03-23T07:39:39;29.30;;;12.57;;
5349;SDS011;2697;42.144;24.794;2024-03-23T07:42:05;18.73;;;11.03;;
5349;SDS011;2697;42.144;24.794;2024-03-23T07:44:31;48.63;;;12.40;;
5349;SDS011;2697;42.144;24.794;2024-03-23T07:46:56;31.20;;;12.70;;
5349;SDS011;2697;42.144;24.794;2024-03-23T07:49:22;30.63;;;11.83;;
5349;SDS011;2697;42.144;24.794;2024-03-23T07:51:47;38.40;;;11.07;;
5349;SDS011;2697;42.144;24.794;2024-03-23T07:54:12;17.10;;;9.30;;
5349;SDS011;2697;42.144;24.794;2024-03-23T07:56:38;19.00;;;8.10;;
5349;SDS011;2697;42.144;24.794;2024-03-23T07:59:03;17.33;;;8.10;;
5349;SDS011;2697;42.144;24.794;2024-03-23T08:01:30;23.07;;;10.00;;
5349;SDS011;2697;42.144;24.794;2024-03-23T08:03:56;24.33;;;11.00;;
5349;SDS011;2697;42.144;24.794;2024-03-23T08:06:21;16.20;;;8.77;;
5349;SDS011;2697;42.144;24.794;2024-03-23T08:08:50;29.20;;;10.90;;
5349;SDS011;2697;42.144;24.794;2024-03-23T08:11:33;21.50;;;8.47;;
5349;SDS011;2697;42.144;24.794;2024-03-23T08:13:59;17.67;;;7.90;;
5349;SDS011;2697;42.144;24.794;2024-03-23T08:16:26;39.13;;;9.00;;
5349;SDS011;2697;42.144;24.794;2024-03-23T08:18:51;30.10;;;7.50;;
5349;SDS011;2697;42.144;24.794;2024-03-23T08:21:17;16.40;;;7.90;;
5349;SDS011;2697;42.144;24.794;2024-03-23T08:23:43;16.13;;;7.37;;
5349;SDS011;2697;42.144;24.794;2024-03-23T08:26:10;13.33;;;5.40;;
5349;SDS011;2697;42.144;24.794;2024-03-23T08:28:37;8.10;;;4.53;;
5349;SDS011;2697;42.144;24.794;2024-03-23T08:31:09;19.03;;;7.10;;
5349;SDS011;2697;42.144;24.794;2024-03-23T08:33:36;10.30;;;5.23;;
5349;SDS011;2697;42.144;24.794;2024-03-23T08:36:05;14.10;;;6.67;;
5349;SDS011;2697;42.144;24.794;2024-03-23T08:38:32;23.80;;;7.07;;
5349;SDS011;2697;42.144;24.794;2024-03-23T08:43:37;20.07;;;7.60;;
5349;SDS011;2697;42.144;24.794;2024-03-23T08:48:34;11.27;;;6.10;;
5349;SDS011;2697;42.144;24.794;2024-03-23T08:51:03;11.60;;;5.97;;
5349;SDS011;2697;42.144;24.794;2024-03-23T08:53:29;18.07;;;8.67;;
5349;SDS011;2697;42.144;24.794;2024-03-23T08:55:59;13.83;;;6.70;;
5349;SDS011;2697;42.144;24.794;2024-03-23T08:58:26;17.60;;;7.33;;
5349;SDS011;2697;42.144;24.794;2024-03-23T09:00:52;16.07;;;6.30;;
5349;SDS011;2697;42.144;24.794;2024-03-23T09:03:21;15.10;;;4.53;;
5349;SDS011;2697;42.144;24.794;2024-03-23T09:05:47;8.27;;;5.10;;
5349;SDS011;2697;42.144;24.794;2024-03-23T09:08:12;9.73;;;5.17;;
5349;SDS011;2697;42.144;24.794;2024-03-23T09:10:39;10.23;;;5.47;;
5349;SDS011;2697;42.144;24.794;2024-03-23T09:13:04;9.17;;;5.60;;
5349;SDS011;2697;42.144;24.794;2024-03-23T09:15:30;10.50;;;6.10;;
5349;SDS011;2697;42.144;24.794;2024-03-23T09:17:56;10.87;;;6.50;;
5349;SDS011;2697;42.144;24.794;2024-03-23T09:20:23;9.97;;;5.40;;
5349;SDS011;2697;42.144;24.794;2024-03-23T09:22:49;10.50;;;6.00;;
5349;SDS011;2697;42.144;24.794;2024-03-23T09:25:14;9.87;;;5.20;;
5349;SDS011;2697;42.144;24.794;2024-03-23T09:27:39;8.40;;;4.70;;
5349;SDS011;2697;42.144;24.794;2024-03-23T09:30:05;8.03;;;4.43;;
5349;SDS011;2697;42.144;24.794;2024-03-23T09:32:31;7.43;;;4.77;;
5349;SDS011;2697;42.144;24.794;2024-03-23T09:34:56;10.23;;;5.97;;
5349;SDS011;2697;42.144;24.794;2024-03-23T09:37:21;10.07;;;5.63;;
5349;SDS011;2697;42.144;24.794;2024-03-23T09:39:47;9.53;;;5.30;;
5349;SDS011;2697;42.144;24.794;2024-03-23T09:42:12;11.30;;;5.90;;
5349;SDS011;2697;42.144;24.794;2024-03-23T09:44:39;8.80;;;5.70;;
5349;SDS011;2697;42.144;24.794;2024-03-23T09:47:05;11.53;;;5.90;;
5349;SDS011;2697;42.144;24.794;2024-03-23T09:49:30;9.13;;;4.97;;
5349;SDS011;2697;42.144;24.794;2024-03-23T09:51:57;22.30;;;6.23;;
5349;SDS011;2697;42.144;24.794;2024-03-23T09:54:24;14.10;;;5.63;;
5349;SDS011;2697;42.144;24.794;2024-03-23T09:56:49;13.00;;;5.47;;
5349;SDS011;2697;42.144;24.794;2024-03-23T09:59:15;9.07;;;4.90;;
5349;SDS011;2697;42.144;24.794;2024-03-23T10:01:40;17.13;;;6.50;;
5349;SDS011;2697;42.144;24.794;2024-03-23T10:04:06;11.63;;;5.47;;
5349;SDS011;2697;42.144;24.794;2024-03-23T10:06:31;11.37;;;6.60;;
5349;SDS011;2697;42.144;24.794;2024-03-23T10:08:57;23.43;;;5.73;;
5349;SDS011;2697;42.144;24.794;2024-03-23T10:11:22;9.57;;;5.20;;
5349;SDS011;2697;42.144;24.794;2024-03-23T10:13:48;10.83;;;4.80;;
5349;SDS011;2697;42.144;24.794;2024-03-23T10:16:23;15.90;;;4.17;;
5349;SDS011;2697;42.144;24.794;2024-03-23T10:18:49;12.47;;;6.63;;
5349;SDS011;2697;42.144;24.794;2024-03-23T10:21:15;20.77;;;5.40;;
5349;SDS011;2697;42.144;24.794;2024-03-23T10:23:42;8.17;;;4.40;;
5349;SDS011;2697;42.144;24.794;2024-03-23T10:31:32;9.13;;;4.50;;
5349;SDS011;2697;42.144;24.794;2024-03-23T10:33:58;10.30;;;5.37;;
5349;SDS011;2697;42.144;24.794;2024-03-23T10:36:25;12.60;;;4.50;;
5349;SDS011;2697;42.144;24.794;2024-03-23T10:38:51;6.93;;;4.93;;
5349;SDS011;2697;42.144;24.794;2024-03-23T10:41:18;8.63;;;5.03;;
5349;SDS011;2697;42.144;24.794;2024-03-23T10:43:47;13.73;;;3.50;;
5349;SDS011;2697;42.144;24.794;2024-03-23T10:46:13;9.47;;;4.87;;
5349;SDS011;2697;42.144;24.794;2024-03-23T10:48:39;16.00;;;5.30;;
5349;SDS011;2697;42.144;24.794;2024-03-23T10:51:08;8.60;;;4.43;;
5349;SDS011;2697;42.144;24.794;2024-03-23T10:53:35;7.10;;;3.93;;
5349;SDS011;2697;42.144;24.794;2024-03-23T10:56:02;8.03;;;5.23;;
5349;SDS011;2697;42.144;24.794;2024-03-23T10:58:49;7.97;;;4.93;;
5349;SDS011;2697;42.144;24.794;2024-03-23T11:01:14;8.63;;;5.20;;
5349;SDS011;2697;42.144;24.794;2024-03-23T11:03:51;7.10;;;4.27;;
5349;SDS011;2697;42.144;24.794;2024-03-23T11:09:02;6.83;;;4.17;;
5349;SDS011;2697;42.144;24.794;2024-03-23T11:11:27;13.60;;;4.97;;
5349;SDS011;2697;42.144;24.794;2024-03-23T11:13:56;7.60;;;4.40;;
5349;SDS011;2697;42.144;24.794;2024-03-23T11:16:25;18.97;;;5.20;;
5349;SDS011;2697;42.144;24.794;2024-03-23T11:21:59;13.30;;;6.60;;
5349;SDS011;2697;42.144;24.794;2024-03-23T11:24:25;7.73;;;4.83;;
5349;SDS011;2697;42.144;24.794;2024-03-23T11:26:50;22.23;;;5.57;;
5349;SDS011;2697;42.144;24.794;2024-03-23T11:29:16;22.03;;;4.67;;
5349;SDS011;2697;42.144;24.794;2024-03-23T11:31:49;14.10;;;4.73;;
5349;SDS011;2697;42.144;24.794;2024-03-23T11:34:15;10.50;;;5.43;;
5349;SDS011;2697;42.144;24.794;2024-03-23T11:36:41;11.50;;;5.40;;
5349;SDS011;2697;42.144;24.794;2024-03-23T11:39:14;13.73;;;4.93;;
5349;SDS011;2697;42.144;24.794;2024-03-23T11:41:50;9.17;;;4.60;;
5349;SDS011;2697;42.144;24.794;2024-03-23T11:46:45;7.30;;;4.30;;
5349;SDS011;2697;42.144;24.794;2024-03-23T11:49:28;15.03;;;4.83;;
5349;SDS011;2697;42.144;24.794;2024-03-23T11:51:54;9.03;;;4.40;;
5349;SDS011;2697;42.144;24.794;2024-03-23T11:54:22;7.83;;;4.50;;
5349;SDS011;2697;42.144;24.794;2024-03-23T11:56:57;10.33;;;4.53;;
5349;SDS011;2697;42.144;24.794;2024-03-23T11:59:39;7.90;;;4.97;;
5349;SDS011;2697;42.144;24.794;2024-03-23T12:02:09;6.40;;;4.27;;
5349;SDS011;2697;42.144;24.794;2024-03-23T12:04:36;8.17;;;4.13;;
5349;SDS011;2697;42.144;24.794;2024-03-23T12:07:09;7.87;;;4.80;;
5349;SDS011;2697;42.144;24.794;2024-03-23T12:09:42;10.00;;;4.23;;
5349;SDS011;2697;42.144;24.794;2024-03-23T12:12:17;7.80;;;3.90;;
5349;SDS011;2697;42.144;24.794;2024-03-23T12:14:43;6.00;;;3.93;;
5349;SDS011;2697;42.144;24.794;2024-03-23T12:17:13;11.07;;;5.17;;
5349;SDS011;2697;42.144;24.794;2024-03-23T12:19:39;12.50;;;4.80;;
5349;SDS011;2697;42.144;24.794;2024-03-23T12:22:06;6.90;;;4.57;;
5349;SDS011;2697;42.144;24.794;2024-03-23T12:24:33;10.47;;;4.17;;
5349;SDS011;2697;42.144;24.794;2024-03-23T12:27:02;9.40;;;4.73;;
5349;SDS011;2697;42.144;24.794;2024-03-23T12:29:33;10.10;;;3.33;;
5349;SDS011;2697;42.144;24.794;2024-03-23T12:32:02;8.97;;;4.87;;
5349;SDS011;2697;42.144;24.794;2024-03-23T12:34:28;6.27;;;4.00;;
5349;SDS011;2697;42.144;24.794;2024-03-23T12:36:55;14.87;;;5.40;;
5349;SDS011;2697;42.144;24.794;2024-03-23T12:39:21;38.60;;;6.87;;
5349;SDS011;2697;42.144;24.794;2024-03-23T12:41:47;10.50;;;4.60;;
5349;SDS011;2697;42.144;24.794;2024-03-23T12:44:13;6.43;;;3.70;;
5349;SDS011;2697;42.144;24.794;2024-03-23T12:46:40;8.03;;;4.60;;
5349;SDS011;2697;42.144;24.794;2024-03-23T12:49:05;11.70;;;4.73;;
5349;SDS011;2697;42.144;24.794;2024-03-23T12:51:31;7.47;;;5.00;;
5349;SDS011;2697;42.144;24.794;2024-03-23T12:53:57;8.17;;;4.80;;
5349;SDS011;2697;42.144;24.794;2024-03-23T12:56:22;10.27;;;4.77;;
5349;SDS011;2697;42.144;24.794;2024-03-23T12:58:48;11.10;;;4.60;;
5349;SDS011;2697;42.144;24.794;2024-03-23T13:01:16;8.87;;;3.73;;
5349;SDS011;2697;42.144;24.794;2024-03-23T13:03:48;5.90;;;4.00;;
5349;SDS011;2697;42.144;24.794;2024-03-23T13:06:14;9.23;;;4.20;;
5349;SDS011;2697;42.144;24.794;2024-03-23T13:08:40;8.33;;;4.73;;
5349;SDS011;2697;42.144;24.794;2024-03-23T13:11:06;8.33;;;4.70;;
5349;SDS011;2697;42.144;24.794;2024-03-23T13:13:34;12.13;;;6.63;;
5349;SDS011;2697;42.144;24.794;2024-03-23T13:15:59;10.80;;;6.23;;
5349;SDS011;2697;42.144;24.794;2024-03-23T13:18:25;12.57;;;5.93;;
5349;SDS011;2697;42.144;24.794;2024-03-23T13:20:50;14.90;;;7.97;;
5349;SDS011;2697;42.144;24.794;2024-03-23T13:23:15;14.07;;;7.37;;
5349;SDS011;2697;42.144;24.794;2024-03-23T13:25:45;16.00;;;8.13;;
5349;SDS011;2697;42.144;24.794;2024-03-23T13:28:14;23.33;;;11.63;;
5349;SDS011;2697;42.144;24.794;2024-03-23T13:30:49;21.23;;;13.80;;
5349;SDS011;2697;42.144;24.794;2024-03-23T13:33:18;20.87;;;10.03;;
5349;SDS011;2697;42.144;24.794;2024-03-23T13:35:52;20.33;;;11.97;;
5349;SDS011;2697;42.144;24.794;2024-03-23T13:38:19;31.73;;;11.30;;
5349;SDS011;2697;42.144;24.794;2024-03-23T13:40:49;16.17;;;9.50;;
5349;SDS011;2697;42.144;24.794;2024-03-23T13:43:18;21.93;;;8.57;;
5349;SDS011;2697;42.144;24.794;2024-03-23T13:45:44;13.17;;;6.37;;
5349;SDS011;2697;42.144;24.794;2024-03-23T13:48:09;13.87;;;7.00;;
5349;SDS011;2697;42.144;24.794;2024-03-23T13:50:35;12.07;;;6.50;;
5349;SDS011;2697;42.144;24.794;2024-03-23T13:53:00;17.40;;;5.90;;
5349;SDS011;2697;42.144;24.794;2024-03-23T13:55:26;11.20;;;4.00;;
5349;SDS011;2697;42.144;24.794;2024-03-23T13:57:51;8.73;;;4.40;;
5349;SDS011;2697;42.144;24.794;2024-03-23T14:00:16;25.60;;;4.07;;
5349;SDS011;2697;42.144;24.794;2024-03-23T14:02:43;12.13;;;3.67;;
5349;SDS011;2697;42.144;24.794;2024-03-23T14:05:09;8.20;;;4.30;;
5349;SDS011;2697;42.144;24.794;2024-03-23T14:07:36;7.57;;;3.53;;
5349;SDS011;2697;42.144;24.794;2024-03-23T14:10:04;16.23;;;4.50;;
5349;SDS011;2697;42.144;24.794;2024-03-23T14:12:35;4.50;;;3.20;;
5349;SDS011;2697;42.144;24.794;2024-03-23T14:15:01;7.90;;;4.30;;
5349;SDS011;2697;42.144;24.794;2024-03-23T14:17:27;5.00;;;3.43;;
5349;SDS011;2697;42.144;24.794;2024-03-23T14:19:53;6.10;;;4.47;;
5349;SDS011;2697;42.144;24.794;2024-03-23T14:22:18;8.53;;;4.70;;
5349;SDS011;2697;42.144;24.794;2024-03-23T14:24:46;4.17;;;2.93;;
5349;SDS011;2697;42.144;24.794;2024-03-23T14:27:13;4.73;;;3.23;;
5349;SDS011;2697;42.144;24.794;2024-03-23T14:29:38;4.73;;;2.47;;
5349;SDS011;2697;42.144;24.794;2024-03-23T14:32:04;11.00;;;3.90;;
5349;SDS011;2697;42.144;24.794;2024-03-23T14:34:30;5.40;;;2.97;;
5349;SDS011;2697;42.144;24.794;2024-03-23T14:36:55;12.30;;;3.70;;
5349;SDS011;2697;42.144;24.794;2024-03-23T14:39:23;6.27;;;2.90;;
5349;SDS011;2697;42.144;24.794;2024-03-23T14:41:52;7.70;;;4.03;;
5349;SDS011;2697;42.144;24.794;2024-03-23T14:44:17;5.40;;;2.93;;
5349;SDS011;2697;42.144;24.794;2024-03-23T14:46:43;7.70;;;2.87;;
5349;SDS011;2697;42.144;24.794;2024-03-23T14:49:09;6.60;;;3.00;;
5349;SDS011;2697;42.144;24.794;2024-03-23T14:51:41;14.07;;;3.23;;
5349;SDS011;2697;42.144;24.794;2024-03-23T14:54:06;18.63;;;3.23;;
5349;SDS011;2697;42.144;24.794;2024-03-23T14:56:32;13.27;;;3.07;;
5349;SDS011;2697;42.144;24.794;2024-03-23T14:58:57;3.47;;;2.23;;
5349;SDS011;2697;42.144;24.794;2024-03-23T15:01:22;7.20;;;3.13;;
5349;SDS011;2697;42.144;24.794;2024-03-23T15:03:48;4.53;;;2.93;;
5349;SDS011;2697;42.144;24.794;2024-03-23T15:06:13;9.47;;;2.90;;
5349;SDS011;2697;42.144;24.794;2024-03-23T15:08:39;7.03;;;3.10;;
5349;SDS011;2697;42.144;24.794;2024-03-23T15:11:07;8.77;;;3.60;;
5349;SDS011;2697;42.144;24.794;2024-03-23T15:13:33;3.10;;;2.43;;
5349;SDS011;2697;42.144;24.794;2024-03-23T15:15:59;6.30;;;3.00;;
5349;SDS011;2697;42.144;24.794;2024-03-23T15:18:24;6.60;;;2.93;;
5349;SDS011;2697;42.144;24.794;2024-03-23T15:23:19;3.03;;;2.00;;
5349;SDS011;2697;42.144;24.794;2024-03-23T15:25:45;5.63;;;2.90;;
5349;SDS011;2697;42.144;24.794;2024-03-23T15:28:10;6.70;;;3.00;;
5349;SDS011;2697;42.144;24.794;2024-03-23T15:30:36;4.90;;;2.60;;
5349;SDS011;2697;42.144;24.794;2024-03-23T15:33:01;5.20;;;2.33;;
5349;SDS011;2697;42.144;24.794;2024-03-23T15:35:27;11.70;;;3.20;;
5349;SDS011;2697;42.144;24.794;2024-03-23T15:37:53;8.67;;;2.50;;
5349;SDS011;2697;42.144;24.794;2024-03-23T15:40:18;4.60;;;2.70;;
5349;SDS011;2697;42.144;24.794;2024-03-23T15:42:44;6.70;;;2.50;;
5349;SDS011;2697;42.144;24.794;2024-03-23T15:45:09;7.03;;;3.00;;
5349;SDS011;2697;42.144;24.794;2024-03-23T15:47:35;3.80;;;2.40;;
5349;SDS011;2697;42.144;24.794;2024-03-23T15:50:00;14.67;;;2.53;;
5349;SDS011;2697;42.144;24.794;2024-03-23T15:52:26;2.47;;;1.83;;
5349;SDS011;2697;42.144;24.794;2024-03-23T15:54:51;4.40;;;2.63;;
5349;SDS011;2697;42.144;24.794;2024-03-23T15:57:17;6.30;;;2.90;;
5349;SDS011;2697;42.144;24.794;2024-03-23T15:59:43;9.10;;;3.30;;